createdAt,value
2023-05-11T00:00:00.387Z,43.76
2023-05-11T00:01:00.371Z,43.64
2023-05-11T00:02:00.419Z,43.55
2023-05-11T00:03:00.503Z,43.45
2023-05-11T00:04:00.419Z,43.32
2023-05-11T00:05:00.348Z,43.27
2023-05-11T00:06:00.350Z,43.18
2023-05-11T00:07:00.350Z,43.08
2023-05-11T00:08:00.318Z,42.98
2023-05-11T00:09:00.320Z,42.93
2023-05-11T00:10:00.306Z,42.84
2023-05-11T00:11:00.321Z,42.76
2023-05-11T00:12:00.289Z,42.67
2023-05-11T00:13:00.293Z,42.65
2023-05-11T00:14:00.278Z,42.56
2023-05-11T00:15:00.258Z,42.52
2023-05-11T00:16:00.350Z,42.46
2023-05-11T00:17:00.248Z,42.39
2023-05-11T00:18:00.351Z,42.37
2023-05-11T00:19:00.298Z,42.34
2023-05-11T00:20:00.232Z,42.29
2023-05-11T00:21:00.232Z,42.27
2023-05-11T00:22:00.217Z,42.21
2023-05-11T00:23:00.220Z,42.19
2023-05-11T00:24:00.209Z,42.13
2023-05-11T00:25:00.187Z,42.14
2023-05-11T00:26:00.194Z,42.11
2023-05-11T00:27:00.211Z,42.07
2023-05-11T00:28:00.212Z,42.04
2023-05-11T00:29:00.215Z,42.02
2023-05-11T00:30:00.349Z,42.00
2023-05-11T00:31:00.401Z,42.01
2023-05-11T00:32:00.269Z,41.99
2023-05-11T00:33:00.429Z,41.96
2023-05-11T00:34:00.332Z,41.94
2023-05-11T00:35:00.347Z,41.90
2023-05-11T00:36:00.389Z,41.91
2023-05-11T00:37:00.428Z,41.90
2023-05-11T00:38:00.423Z,41.90
2023-05-11T00:39:00.500Z,41.89
2023-05-11T00:40:00.520Z,41.87
2023-05-11T00:41:00.549Z,41.86
2023-05-11T00:42:00.581Z,41.84
2023-05-11T00:43:00.623Z,41.85
2023-05-11T00:44:00.632Z,41.87
2023-05-11T00:45:00.657Z,41.83
2023-05-11T00:46:00.667Z,41.81
2023-05-11T00:47:00.916Z,41.82
2023-05-11T00:48:00.802Z,41.82
2023-05-11T00:49:00.776Z,41.81
2023-05-11T00:50:00.792Z,41.80
2023-05-11T00:51:00.833Z,41.79
2023-05-11T00:52:00.892Z,41.79
2023-05-11T00:53:00.948Z,41.77
2023-05-11T00:54:00.978Z,41.78
2023-05-11T00:55:01.021Z,41.77
2023-05-11T00:56:01.042Z,41.74
2023-05-11T00:57:01.064Z,41.73
2023-05-11T00:58:01.112Z,41.73
2023-05-11T00:59:01.227Z,41.73
2023-05-11T01:00:01.218Z,41.72
2023-05-11T01:01:01.304Z,41.72
2023-05-11T01:02:01.320Z,41.70
2023-05-11T01:03:01.487Z,41.67
2023-05-11T01:04:01.418Z,41.69
2023-05-11T01:05:01.442Z,41.61
2023-05-11T01:06:01.469Z,41.59
2023-05-11T01:07:01.498Z,41.58
2023-05-11T01:08:01.518Z,41.59
2023-05-11T01:09:01.565Z,41.58
2023-05-11T01:10:01.625Z,41.57
2023-05-11T01:11:01.643Z,41.56
2023-05-11T01:12:01.693Z,41.54
2023-05-11T01:13:01.725Z,41.52
2023-05-11T01:14:01.764Z,41.52
2023-05-11T01:15:01.831Z,41.50
2023-05-11T01:16:01.842Z,41.47
2023-05-11T01:17:01.932Z,41.46
2023-05-11T01:18:01.919Z,41.44
2023-05-11T01:19:02.029Z,41.38
2023-05-11T01:20:02.033Z,41.40
2023-05-11T01:21:02.026Z,41.41
2023-05-11T01:22:02.069Z,41.39
2023-05-11T01:23:02.105Z,41.42
2023-05-11T01:24:02.104Z,41.38
2023-05-11T01:25:02.112Z,41.37
2023-05-11T01:26:02.127Z,41.34
2023-05-11T01:27:02.152Z,41.28
2023-05-11T01:28:02.171Z,41.30
2023-05-11T01:29:02.193Z,41.30
2023-05-11T01:30:02.209Z,41.29
2023-05-11T01:31:02.258Z,41.32
2023-05-11T01:32:02.281Z,41.28
2023-05-11T01:33:02.336Z,41.25
2023-05-11T01:34:02.287Z,41.29
2023-05-11T01:35:02.351Z,41.26
2023-05-11T01:36:02.299Z,41.27
2023-05-11T01:37:02.309Z,41.25
2023-05-11T01:38:02.327Z,41.26
2023-05-11T01:39:02.335Z,41.22
2023-05-11T01:40:02.347Z,41.22
2023-05-11T01:41:02.359Z,41.23
2023-05-11T01:42:02.386Z,41.24
2023-05-11T01:43:02.402Z,41.23
2023-05-11T01:44:02.432Z,41.21
2023-05-11T01:45:02.457Z,41.20
2023-05-11T01:46:02.482Z,41.20
2023-05-11T01:47:02.504Z,41.19
2023-05-11T01:48:02.596Z,41.18
2023-05-11T01:49:02.542Z,41.22
2023-05-11T01:50:02.575Z,41.21
2023-05-11T01:51:02.614Z,41.20
2023-05-11T01:52:02.608Z,41.19
2023-05-11T01:53:02.645Z,41.20
2023-05-11T01:54:02.687Z,41.17
2023-05-11T01:55:02.697Z,41.19
2023-05-11T01:56:02.762Z,41.20
2023-05-11T01:57:02.766Z,41.19
2023-05-11T01:58:02.833Z,41.18
2023-05-11T01:59:02.838Z,41.17
2023-05-11T02:00:02.862Z,41.18
2023-05-11T02:01:02.905Z,41.17
2023-05-11T02:02:02.894Z,41.16
2023-05-11T02:03:02.991Z,41.19
2023-05-11T02:04:02.907Z,41.18
2023-05-11T02:05:02.908Z,41.19
2023-05-11T02:06:02.936Z,41.15
2023-05-11T02:07:02.936Z,41.16
2023-05-11T02:08:02.954Z,41.14
2023-05-11T02:09:02.991Z,41.15
2023-05-11T02:10:03.016Z,41.13
2023-05-11T02:11:03.032Z,41.12
2023-05-11T02:12:03.051Z,41.15
2023-05-11T02:13:03.092Z,41.15
2023-05-11T02:14:03.093Z,41.14
2023-05-11T02:15:03.082Z,41.16
2023-05-11T02:16:03.168Z,41.14
2023-05-11T02:17:03.134Z,41.10
2023-05-11T02:18:03.193Z,41.09
2023-05-11T02:19:03.273Z,41.11
2023-05-11T02:20:03.194Z,41.08
2023-05-11T02:21:03.225Z,41.09
2023-05-11T02:22:03.172Z,41.08
2023-05-11T02:23:03.176Z,41.09
2023-05-11T02:24:03.184Z,41.08
2023-05-11T02:25:03.182Z,41.09
2023-05-11T02:26:03.180Z,41.09
2023-05-11T02:27:03.172Z,41.08
2023-05-11T02:28:03.160Z,41.05
2023-05-11T02:29:03.193Z,41.07
2023-05-11T02:30:03.204Z,41.06
2023-05-11T02:31:03.221Z,41.07
2023-05-11T02:32:03.197Z,41.07
2023-05-11T02:33:03.231Z,41.02
2023-05-11T02:34:03.202Z,41.03
2023-05-11T02:35:03.222Z,41.03
2023-05-11T02:36:03.197Z,41.00
2023-05-11T02:37:03.202Z,41.02
2023-05-11T02:38:03.192Z,41.04
2023-05-11T02:39:03.187Z,41.01
2023-05-11T02:40:03.206Z,41.02
2023-05-11T02:41:03.211Z,41.01
2023-05-11T02:42:03.229Z,41.00
2023-05-11T02:43:03.233Z,41.03
2023-05-11T02:44:03.251Z,41.04
2023-05-11T02:45:03.304Z,41.04
2023-05-11T02:46:03.312Z,41.03
2023-05-11T02:47:03.384Z,41.04
2023-05-11T02:48:03.401Z,41.03
2023-05-11T02:49:03.353Z,41.01
2023-05-11T02:50:03.385Z,41.01
2023-05-11T02:51:03.401Z,41.03
2023-05-11T02:52:03.368Z,41.05
2023-05-11T02:53:03.355Z,41.03
2023-05-11T02:54:03.350Z,41.03
2023-05-11T02:55:03.348Z,41.03
2023-05-11T02:56:03.348Z,41.06
2023-05-11T02:57:03.327Z,41.01
2023-05-11T02:58:03.366Z,41.04
2023-05-11T02:59:03.318Z,41.04
2023-05-11T03:00:03.335Z,41.05
2023-05-11T03:01:03.409Z,41.02
2023-05-11T03:02:03.534Z,41.00
2023-05-11T03:03:03.451Z,41.02
2023-05-11T03:04:03.389Z,41.01
2023-05-11T03:05:03.423Z,41.02
2023-05-11T03:06:03.425Z,41.02
2023-05-11T03:07:03.490Z,41.02
2023-05-11T03:08:03.460Z,41.01
2023-05-11T03:09:03.455Z,41.01
2023-05-11T03:10:03.466Z,40.99
2023-05-11T03:11:03.473Z,40.99
2023-05-11T03:12:03.522Z,41.00
2023-05-11T03:13:03.545Z,40.99
2023-05-11T03:14:03.549Z,41.02
2023-05-11T03:15:03.585Z,41.00
2023-05-11T03:16:03.593Z,40.99
2023-05-11T03:17:03.707Z,40.99
2023-05-11T03:18:03.635Z,40.99
2023-05-11T03:19:03.635Z,41.01
2023-05-11T03:20:03.685Z,40.97
2023-05-11T03:21:03.578Z,40.99
2023-05-11T03:22:03.581Z,40.97
2023-05-11T03:23:03.622Z,40.99
2023-05-11T03:24:03.568Z,40.98
2023-05-11T03:25:03.562Z,40.97
2023-05-11T03:26:03.559Z,40.98
2023-05-11T03:27:03.573Z,40.97
2023-05-11T03:28:03.572Z,40.97
2023-05-11T03:29:03.580Z,40.98
2023-05-11T03:30:03.612Z,40.97
2023-05-11T03:32:02.588Z,40.96
2023-05-11T03:33:03.618Z,40.95
2023-05-11T03:34:03.589Z,40.97
2023-05-11T03:35:03.584Z,40.96
2023-05-11T03:36:03.587Z,40.97
2023-05-11T03:37:03.579Z,40.92
2023-05-11T03:38:03.569Z,40.93
2023-05-11T03:39:03.611Z,40.93
2023-05-11T03:40:03.559Z,40.93
2023-05-11T03:41:03.558Z,40.96
2023-05-11T03:42:03.554Z,40.94
2023-05-11T03:43:03.552Z,40.92
2023-05-11T03:44:03.557Z,40.92
2023-05-11T03:45:03.556Z,40.93
2023-05-11T03:46:03.613Z,40.94
2023-05-11T03:47:03.565Z,40.92
2023-05-11T03:48:03.623Z,40.90
2023-05-11T03:49:03.567Z,40.91
2023-05-11T03:50:03.575Z,40.90
2023-05-11T03:51:03.560Z,40.90
2023-05-11T03:52:03.556Z,40.90
2023-05-11T03:53:03.553Z,40.91
2023-05-11T03:54:03.551Z,40.90
2023-05-11T03:55:03.565Z,40.89
2023-05-11T03:56:03.547Z,40.91
2023-05-11T03:57:03.553Z,40.89
2023-05-11T03:58:04.443Z,40.91
2023-05-11T03:59:03.530Z,40.89
2023-05-11T04:00:03.534Z,40.90
2023-05-11T04:01:03.528Z,40.90
2023-05-11T04:02:03.523Z,40.85
2023-05-11T04:03:03.569Z,40.88
2023-05-11T04:04:03.546Z,40.88
2023-05-11T04:05:03.517Z,40.86
2023-05-11T04:06:03.501Z,40.86
2023-05-11T04:07:03.500Z,40.83
2023-05-11T04:08:03.485Z,40.81
2023-05-11T04:09:03.505Z,40.84
2023-05-11T04:10:03.489Z,40.84
2023-05-11T04:11:03.532Z,40.86
2023-05-11T04:12:03.485Z,40.84
2023-05-11T04:13:03.476Z,40.82
2023-05-11T04:14:03.468Z,40.86
2023-05-11T04:15:03.481Z,40.84
2023-05-11T04:16:03.494Z,40.83
2023-05-11T04:17:03.465Z,40.84
2023-05-11T04:18:03.494Z,40.82
2023-05-11T04:19:03.492Z,40.82
2023-05-11T04:20:03.462Z,40.82
2023-05-11T04:21:03.454Z,40.84
2023-05-11T04:22:03.443Z,40.82
2023-05-11T04:23:03.441Z,40.81
2023-05-11T04:24:03.441Z,40.81
2023-05-11T04:25:03.456Z,40.82
2023-05-11T04:26:03.441Z,40.81
2023-05-11T04:27:03.467Z,40.81
2023-05-11T04:28:03.435Z,40.84
2023-05-11T04:29:03.428Z,40.81
2023-05-11T04:30:03.441Z,40.79
2023-05-11T04:31:03.480Z,40.81
2023-05-11T04:32:03.437Z,40.80
2023-05-11T04:33:04.224Z,40.81
2023-05-11T04:34:03.425Z,40.81
2023-05-11T04:35:03.433Z,40.78
2023-05-11T04:36:03.439Z,40.80
2023-05-11T04:37:03.432Z,40.80
2023-05-11T04:38:03.424Z,40.79
2023-05-11T04:39:03.428Z,40.79
2023-05-11T04:40:03.426Z,40.77
2023-05-11T04:41:03.429Z,40.78
2023-05-11T04:42:03.422Z,40.78
2023-05-11T04:43:03.441Z,40.76
2023-05-11T04:44:03.404Z,40.76
2023-05-11T04:45:03.398Z,40.75
2023-05-11T04:46:03.396Z,40.75
2023-05-11T04:47:03.430Z,40.76
2023-05-11T04:48:03.397Z,40.74
2023-05-11T04:49:03.387Z,40.76
2023-05-11T04:50:03.386Z,40.76
2023-05-11T04:51:03.386Z,40.74
2023-05-11T04:52:03.383Z,40.73
2023-05-11T04:53:03.390Z,40.73
2023-05-11T04:54:03.393Z,40.74
2023-05-11T04:55:03.402Z,40.71
2023-05-11T04:56:03.391Z,40.74
2023-05-11T04:57:03.396Z,40.72
2023-05-11T04:58:03.396Z,40.72
2023-05-11T04:59:05.335Z,40.75
2023-05-11T05:00:03.466Z,40.75
2023-05-11T05:01:03.418Z,40.72
2023-05-11T05:02:03.370Z,40.71
2023-05-11T05:03:03.451Z,40.74
2023-05-11T05:04:03.413Z,40.71
2023-05-11T05:05:03.384Z,40.73
2023-05-11T05:06:03.346Z,40.72
2023-05-11T05:07:03.340Z,40.72
2023-05-11T05:08:03.341Z,40.68
2023-05-11T05:09:03.361Z,40.68
2023-05-11T05:10:03.326Z,40.70
2023-05-11T05:11:03.321Z,40.67
2023-05-11T05:12:03.317Z,40.68
2023-05-11T05:13:03.302Z,40.66
2023-05-11T05:14:03.290Z,40.67
2023-05-11T05:15:03.331Z,40.67
2023-05-11T05:16:03.299Z,40.66
2023-05-11T05:17:03.316Z,40.67
2023-05-11T05:18:03.320Z,40.71
2023-05-11T05:19:03.407Z,40.70
2023-05-11T05:20:06.454Z,40.89
2023-05-11T05:21:03.734Z,40.85
2023-05-11T05:22:03.240Z,40.83
2023-05-11T05:23:03.233Z,40.76
2023-05-11T05:24:03.242Z,40.82
2023-05-11T05:25:03.220Z,40.96
2023-05-11T05:26:03.220Z,40.99
2023-05-11T05:27:03.236Z,40.96
2023-05-11T05:28:03.206Z,40.97
2023-05-11T05:29:03.196Z,40.93
2023-05-11T05:30:03.183Z,40.89
2023-05-11T05:31:03.297Z,40.89
2023-05-11T05:32:03.162Z,40.79
2023-05-11T05:33:03.191Z,40.77
2023-05-11T05:34:03.175Z,40.83
2023-05-11T05:35:03.154Z,40.93
2023-05-11T05:36:03.264Z,40.90
2023-05-11T05:37:03.138Z,40.85
2023-05-11T05:38:03.239Z,40.86
2023-05-11T05:39:03.123Z,40.87
2023-05-11T05:40:03.178Z,40.82
2023-05-11T05:41:03.241Z,40.88
2023-05-11T05:42:03.122Z,40.89
2023-05-11T05:43:04.093Z,40.91
2023-05-11T05:44:03.174Z,40.87
2023-05-11T05:45:03.239Z,40.86
2023-05-11T05:46:03.258Z,40.88
2023-05-11T05:47:03.104Z,40.91
2023-05-11T05:48:03.213Z,40.90
2023-05-11T05:49:03.243Z,41.07
2023-05-11T05:50:03.040Z,41.20
2023-05-11T05:51:06.458Z,41.14
2023-05-11T05:52:11.121Z,41.19
2023-05-11T05:53:03.031Z,41.23
2023-05-11T05:54:03.370Z,41.31
2023-05-11T05:56:11.132Z,41.32
2023-05-11T05:58:10.499Z,42.42
2023-05-11T05:59:03.151Z,41.92
2023-05-11T06:00:10.550Z,41.83
2023-05-11T06:01:35.445Z,41.91
2023-05-11T06:02:10.451Z,41.73
2023-05-11T06:04:10.564Z,41.79
2023-05-11T06:06:10.351Z,41.84
2023-05-11T06:09:06.113Z,41.87
2023-05-11T06:10:02.923Z,41.86
2023-05-11T06:12:03.745Z,41.89
2023-05-11T06:13:02.884Z,41.86
2023-05-11T06:14:02.919Z,41.85
2023-05-11T06:16:02.913Z,41.89
2023-05-11T06:17:03.246Z,41.86
2023-05-11T06:18:03.150Z,41.87
2023-05-11T06:19:03.008Z,41.85
2023-05-11T06:20:02.835Z,41.87
2023-05-11T11:50:09.052Z,43.31
2023-05-11T11:51:10.012Z,43.24
2023-05-11T11:52:10.009Z,43.13
2023-05-11T11:53:10.001Z,43.07
2023-05-11T11:54:10.008Z,43.04
2023-05-11T11:55:09.984Z,42.99
2023-05-11T11:56:09.995Z,42.89
2023-05-11T11:57:09.955Z,42.86
2023-05-11T11:58:10.194Z,42.77
2023-05-11T11:59:09.951Z,42.74
2023-05-11T12:00:09.952Z,42.71
2023-05-11T12:01:09.938Z,42.68
2023-05-11T12:02:09.926Z,42.66
2023-05-11T12:03:09.983Z,42.60
2023-05-11T12:04:10.063Z,42.54
2023-05-11T12:05:10.075Z,42.54
2023-05-11T12:06:09.926Z,42.49
2023-05-11T12:07:09.898Z,42.46
2023-05-11T12:08:10.202Z,42.45
2023-05-11T12:09:09.882Z,42.39
2023-05-11T12:10:09.980Z,42.39
2023-05-11T12:11:09.863Z,42.38
2023-05-11T12:12:09.858Z,42.33
2023-05-11T12:13:10.202Z,42.30
2023-05-11T12:14:09.850Z,42.28
2023-05-11T12:15:09.836Z,42.27
2023-05-11T12:16:09.921Z,42.25
2023-05-11T12:17:09.920Z,42.27
2023-05-11T12:18:10.015Z,42.22
2023-05-11T12:19:10.059Z,42.24
2023-05-11T12:20:10.096Z,42.20
2023-05-11T12:21:10.124Z,42.21
2023-05-11T12:22:10.211Z,42.20
2023-05-11T12:23:10.707Z,42.19
2023-05-11T12:24:10.323Z,42.18
2023-05-11T12:25:10.714Z,42.14
2023-05-11T12:26:10.406Z,42.16
2023-05-11T12:27:10.452Z,42.13
2023-05-11T12:28:10.477Z,42.11
2023-05-11T12:29:10.543Z,42.11
2023-05-11T12:30:10.586Z,42.08
2023-05-11T12:31:10.625Z,42.07
2023-05-11T12:32:10.736Z,42.08
2023-05-11T12:33:10.755Z,42.08
2023-05-11T12:34:10.801Z,42.05
2023-05-11T12:35:10.749Z,42.04
2023-05-11T12:36:10.792Z,42.00
2023-05-11T12:37:10.826Z,42.00
2023-05-11T12:38:11.233Z,42.01
2023-05-11T12:39:10.910Z,41.99
2023-05-11T12:40:10.941Z,42.00
2023-05-11T12:41:10.981Z,42.00
2023-05-11T12:42:11.023Z,42.00
2023-05-11T12:43:18.949Z,41.95
2023-05-11T12:44:11.046Z,41.98
2023-05-11T12:45:11.025Z,41.97
2023-05-11T12:46:11.139Z,41.97
2023-05-11T12:47:11.372Z,41.93
2023-05-11T12:48:11.102Z,40.49
2023-05-11T12:49:11.050Z,39.19
2023-05-11T12:50:11.123Z,38.73
2023-05-11T12:51:11.229Z,38.90
2023-05-11T12:52:10.981Z,39.49
2023-05-11T12:53:10.969Z,39.67
2023-05-11T12:54:10.983Z,39.80
2023-05-11T12:55:10.952Z,40.00
2023-05-11T12:56:11.743Z,40.06
2023-05-11T12:57:10.941Z,39.89
2023-05-11T12:58:11.235Z,39.93
2023-05-11T12:59:10.933Z,42.27
2023-05-11T13:00:10.925Z,40.31
2023-05-11T13:01:10.974Z,40.28
2023-05-11T13:02:10.973Z,41.14
2023-05-11T13:03:11.305Z,41.01
2023-05-11T13:04:10.959Z,40.98
2023-05-11T13:05:10.892Z,41.36
2023-05-11T13:06:10.891Z,41.86
2023-05-11T13:07:10.883Z,42.49
2023-05-11T13:08:11.231Z,42.23
2023-05-11T13:09:10.862Z,41.98
2023-05-11T13:10:10.912Z,42.01
2023-05-11T13:11:10.855Z,41.95
2023-05-11T13:12:10.847Z,41.96
2023-05-11T13:13:11.230Z,41.95
2023-05-11T13:14:10.921Z,41.91
2023-05-11T13:15:10.891Z,41.94
2023-05-11T13:16:10.941Z,41.98
2023-05-11T13:17:10.917Z,41.99
2023-05-11T13:18:11.303Z,42.04
2023-05-11T13:19:10.991Z,42.08
2023-05-11T13:20:10.952Z,42.15
2023-05-11T13:21:10.965Z,42.19
2023-05-11T13:22:10.965Z,42.22
2023-05-11T13:23:10.969Z,42.17
2023-05-11T13:24:10.974Z,42.23
2023-05-11T13:25:10.977Z,42.31
2023-05-11T13:26:11.008Z,42.32
2023-05-11T13:27:10.985Z,42.35
2023-05-11T13:28:10.989Z,42.39
2023-05-11T13:29:11.548Z,42.36
2023-05-11T13:30:11.047Z,42.43
2023-05-11T13:31:26.915Z,42.41
2023-05-11T13:32:11.039Z,42.47
2023-05-11T13:33:11.040Z,42.49
2023-05-11T13:34:10.988Z,42.52
2023-05-11T13:35:10.977Z,42.56
2023-05-11T13:36:10.962Z,42.66
2023-05-11T13:37:10.965Z,42.54
2023-05-11T13:38:10.951Z,42.60
2023-05-11T13:39:10.941Z,42.51
2023-05-11T13:40:10.937Z,42.54
2023-05-11T13:41:10.929Z,42.58
2023-05-11T13:42:10.950Z,42.56
2023-05-11T13:43:11.273Z,42.54
2023-05-11T13:44:10.913Z,42.58
2023-05-11T13:45:10.899Z,42.55
2023-05-11T13:46:10.896Z,42.56
2023-05-11T13:47:11.435Z,42.56
2023-05-11T13:48:11.106Z,42.51
2023-05-11T13:49:10.872Z,42.54
2023-05-11T13:50:10.910Z,42.51
2023-05-11T13:51:10.860Z,42.58
2023-05-11T13:52:11.250Z,42.51
2023-05-11T13:53:12.943Z,42.53
2023-05-11T13:54:10.834Z,42.48
2023-05-11T13:55:10.826Z,42.55
2023-05-11T13:56:10.822Z,42.49
2023-05-11T13:57:10.905Z,42.55
2023-05-11T13:58:11.279Z,42.53
2023-05-11T13:59:10.806Z,42.49
2023-05-11T14:00:10.790Z,42.49
2023-05-11T14:01:10.810Z,42.49
2023-05-11T14:02:10.862Z,42.48
2023-05-11T14:03:10.902Z,42.49
2023-05-11T14:04:10.779Z,42.47
2023-05-11T14:05:10.784Z,42.49
2023-05-11T14:06:10.783Z,42.44
2023-05-11T14:07:10.754Z,42.46
2023-05-11T14:08:10.745Z,42.40
2023-05-11T14:09:10.731Z,42.37
2023-05-11T14:10:10.724Z,42.37
2023-05-11T14:11:10.755Z,42.33
2023-05-11T14:12:10.721Z,42.36
2023-05-11T14:13:10.705Z,42.36
2023-05-11T14:14:10.791Z,42.34
2023-05-11T14:15:10.692Z,42.30
2023-05-11T14:16:10.709Z,42.34
2023-05-11T14:17:10.704Z,42.38
2023-05-11T14:18:10.931Z,42.35
2023-05-11T14:19:10.756Z,42.30
2023-05-11T14:20:10.682Z,42.26
2023-05-11T14:21:10.660Z,42.27
2023-05-11T14:22:10.652Z,42.30
2023-05-11T14:23:10.763Z,42.27
2023-05-11T14:24:12.751Z,42.26
2023-05-11T14:25:10.648Z,42.23
2023-05-11T14:26:10.624Z,42.26
2023-05-11T14:27:10.626Z,42.22
2023-05-11T14:28:10.618Z,42.24
2023-05-11T14:29:10.599Z,42.23
2023-05-11T14:30:10.621Z,42.23
2023-05-11T14:31:10.616Z,42.19
2023-05-11T14:32:10.585Z,42.23
2023-05-11T14:33:10.616Z,42.15
2023-05-11T14:34:10.567Z,42.13
2023-05-11T14:35:10.568Z,42.16
2023-05-11T14:36:10.550Z,42.17
2023-05-11T14:37:10.547Z,42.16
2023-05-11T14:38:10.767Z,42.13
2023-05-11T14:39:10.528Z,42.15
2023-05-11T14:40:10.521Z,42.15
2023-05-11T14:41:10.546Z,42.14
2023-05-11T14:42:10.524Z,42.16
2023-05-11T14:43:10.519Z,42.13
2023-05-11T14:44:10.530Z,42.11
2023-05-11T14:45:10.500Z,42.08
2023-05-11T14:46:10.612Z,42.09
2023-05-11T14:47:10.477Z,42.09
2023-05-11T14:48:10.507Z,42.09
2023-05-11T14:49:10.462Z,42.09
2023-05-11T14:50:10.463Z,42.05
2023-05-11T14:51:10.450Z,42.06
2023-05-11T14:52:10.440Z,42.06
2023-05-11T14:53:10.446Z,42.07
2023-05-11T14:54:10.420Z,42.06
2023-05-11T14:55:10.418Z,42.06
2023-05-11T14:56:10.415Z,42.03
2023-05-11T14:57:10.411Z,41.98
2023-05-11T14:58:10.408Z,41.96
2023-05-11T14:59:10.395Z,42.00
2023-05-11T15:00:10.399Z,41.95
2023-05-11T15:01:10.425Z,42.00
2023-05-11T15:02:10.442Z,41.93
2023-05-11T15:03:10.395Z,41.94
2023-05-11T15:04:10.420Z,41.92
2023-05-11T15:05:10.354Z,41.93
2023-05-11T15:06:10.348Z,41.90
2023-05-11T15:07:10.344Z,41.88
2023-05-11T15:08:21.733Z,41.89
2023-05-11T15:09:10.349Z,41.91
2023-05-11T15:10:10.317Z,41.92
2023-05-11T15:11:10.321Z,41.90
2023-05-11T15:12:10.305Z,41.91
2023-05-11T15:13:10.314Z,41.90
2023-05-11T15:14:10.290Z,41.89
2023-05-11T15:15:10.279Z,41.87
2023-05-11T15:16:10.292Z,41.84
2023-05-11T15:17:10.276Z,41.85
2023-05-11T15:18:10.347Z,41.83
2023-05-11T15:19:10.355Z,41.82
2023-05-11T15:20:10.246Z,41.83
2023-05-11T15:21:10.236Z,41.81
2023-05-11T15:22:10.236Z,41.80
2023-05-11T15:23:10.270Z,41.80
2023-05-11T15:24:11.229Z,41.81
2023-05-11T15:25:10.231Z,41.80
2023-05-11T15:26:10.229Z,41.76
2023-05-11T15:27:10.283Z,41.75
2023-05-11T15:28:10.209Z,41.76
2023-05-11T15:29:10.189Z,41.75
2023-05-11T15:30:10.184Z,41.74
2023-05-11T15:31:10.268Z,41.72
2023-05-11T15:32:10.391Z,41.71
2023-05-11T15:33:10.508Z,41.72
2023-05-11T15:34:10.535Z,41.68
2023-05-11T15:35:10.357Z,41.69
2023-05-11T15:36:10.408Z,41.65
2023-05-11T15:37:10.468Z,41.66
2023-05-11T15:38:10.568Z,41.63
2023-05-11T15:39:10.789Z,41.64
2023-05-11T15:40:10.640Z,41.62
2023-05-11T15:41:10.724Z,41.58
2023-05-11T15:42:10.766Z,41.53
2023-05-11T15:43:10.824Z,41.56
2023-05-11T15:44:10.894Z,41.54
2023-05-11T15:45:10.929Z,41.57
2023-05-11T15:46:11.009Z,41.52
2023-05-11T15:47:11.016Z,41.53
2023-05-11T15:48:11.134Z,41.54
2023-05-11T15:49:11.149Z,41.50
2023-05-11T15:50:11.247Z,41.53
2023-05-11T15:51:11.269Z,41.50
2023-05-11T15:52:11.600Z,41.48
2023-05-11T15:53:11.398Z,41.46
2023-05-11T15:54:11.463Z,41.44
2023-05-11T15:55:11.517Z,41.42
2023-05-11T15:56:11.582Z,41.43
2023-05-11T15:57:11.653Z,41.43
2023-05-11T15:58:11.698Z,41.41
2023-05-11T15:59:11.770Z,41.38
2023-05-11T16:00:11.823Z,41.42
2023-05-11T16:01:11.959Z,41.41
2023-05-11T16:02:11.976Z,41.42
2023-05-11T16:03:12.139Z,41.43
2023-05-11T16:04:12.065Z,41.38
2023-05-11T16:05:12.131Z,41.38
2023-05-11T16:06:12.273Z,41.37
2023-05-11T16:07:12.247Z,41.36
2023-05-11T16:08:12.314Z,41.38
2023-05-11T16:09:12.374Z,41.35
2023-05-11T16:10:12.448Z,41.37
2023-05-11T16:11:12.486Z,41.36
2023-05-11T16:12:12.552Z,41.35
2023-05-11T16:13:12.613Z,41.34
2023-05-11T16:14:12.675Z,41.34
2023-05-11T16:15:12.722Z,41.33
2023-05-11T16:16:12.767Z,41.32
2023-05-11T16:17:12.924Z,41.31
2023-05-11T16:18:12.885Z,41.30
2023-05-11T16:19:13.008Z,41.29
2023-05-11T16:20:13.018Z,41.30
2023-05-11T16:21:13.049Z,41.29
2023-05-11T16:22:13.246Z,41.30
2023-05-11T16:23:13.170Z,41.30
2023-05-11T16:24:13.230Z,41.29
2023-05-11T16:25:13.299Z,41.27
2023-05-11T16:26:13.363Z,41.25
2023-05-11T16:27:13.420Z,41.26
2023-05-11T16:28:13.491Z,41.25
2023-05-11T16:29:13.550Z,41.25
2023-05-11T16:30:23.374Z,41.26
2023-05-11T16:31:13.712Z,41.27
2023-05-11T16:32:13.590Z,41.22
2023-05-11T16:33:13.689Z,41.22
2023-05-11T16:34:13.597Z,41.49
2023-05-11T16:35:13.561Z,41.92
2023-05-11T16:36:13.558Z,41.99
2023-05-11T16:37:13.552Z,42.07
2023-05-11T16:38:13.572Z,42.15
2023-05-11T16:39:13.542Z,42.15
2023-05-11T16:40:13.561Z,42.23
2023-05-11T16:41:13.522Z,42.38
2023-05-11T16:42:13.514Z,42.50
2023-05-11T16:43:13.512Z,42.56
2023-05-11T16:44:13.514Z,42.67
2023-05-11T16:45:13.533Z,42.70
2023-05-11T16:46:13.585Z,42.76
2023-05-11T16:47:13.500Z,42.85
2023-05-11T16:48:13.473Z,42.88
2023-05-11T16:49:13.478Z,42.94
2023-05-11T16:50:13.482Z,43.03
2023-05-11T16:51:13.466Z,43.04
2023-05-11T16:52:13.456Z,43.11
2023-05-11T16:53:13.469Z,43.15
2023-05-11T16:54:13.466Z,43.27
2023-05-11T16:55:13.432Z,43.34
2023-05-11T16:56:13.424Z,43.45
2023-05-11T16:57:13.415Z,43.50
2023-05-11T16:58:13.416Z,43.56
2023-05-11T16:59:13.414Z,43.63
2023-05-11T17:00:13.407Z,43.71
2023-05-11T17:01:13.412Z,43.86
2023-05-11T17:02:13.404Z,43.89
2023-05-11T17:03:13.609Z,44.02
2023-05-11T17:04:13.528Z,44.09
2023-05-11T17:05:13.362Z,44.14
2023-05-11T17:06:13.358Z,44.28
2023-05-11T17:07:13.365Z,44.35
2023-05-11T17:08:13.340Z,44.45
2023-05-11T17:09:13.345Z,44.48
2023-05-11T17:10:13.355Z,44.56
2023-05-11T17:11:13.330Z,44.64
2023-05-11T17:12:13.354Z,44.71
2023-05-11T17:13:13.328Z,44.80
2023-05-11T17:14:13.334Z,44.90
2023-05-11T17:15:13.325Z,44.91
2023-05-11T17:16:13.355Z,45.00
2023-05-11T17:17:13.320Z,45.01
2023-05-11T17:18:13.348Z,45.15
2023-05-11T17:19:13.539Z,45.18
2023-05-11T17:20:13.332Z,45.29
2023-05-11T17:21:13.308Z,45.34
2023-05-11T17:22:13.334Z,45.44
2023-05-11T17:23:13.357Z,45.51
2023-05-11T17:24:13.376Z,45.55
2023-05-11T17:25:13.329Z,45.69
2023-05-11T17:26:13.447Z,45.73
2023-05-11T17:27:13.344Z,45.80
2023-05-11T17:28:13.334Z,45.85
2023-05-11T17:29:13.340Z,45.93
2023-05-11T17:30:13.349Z,46.01
2023-05-11T17:31:13.474Z,46.08
2023-05-11T17:32:13.571Z,46.15
2023-05-11T17:33:13.632Z,46.22
2023-05-11T17:34:13.516Z,46.25
2023-05-11T17:35:13.427Z,46.32
2023-05-11T17:36:13.472Z,46.41
2023-05-11T17:37:27.776Z,46.53
2023-05-11T17:38:13.456Z,46.59
2023-05-11T17:39:13.452Z,46.64
2023-05-11T17:40:13.455Z,46.69
2023-05-11T17:41:13.435Z,46.73
2023-05-11T17:42:13.465Z,46.81
2023-05-11T17:43:13.436Z,46.91
2023-05-11T17:44:13.425Z,46.98
2023-05-11T17:45:13.407Z,47.04
2023-05-11T17:46:13.462Z,47.14
2023-05-11T17:47:13.397Z,47.18
2023-05-11T17:48:13.430Z,47.21
2023-05-11T17:49:13.397Z,47.27
2023-05-11T17:50:13.379Z,47.37
2023-05-11T17:51:13.385Z,47.38
2023-05-11T17:52:13.365Z,47.46
2023-05-11T17:53:13.363Z,47.53
2023-05-11T17:54:13.389Z,47.60
2023-05-11T17:55:13.346Z,48.22
2023-05-11T17:56:13.345Z,47.83
2023-05-11T17:57:13.364Z,47.80
2023-05-11T17:58:13.355Z,47.86
2023-05-11T17:59:13.329Z,47.94
2023-05-11T18:00:13.306Z,47.97
2023-05-11T18:01:13.314Z,48.07
2023-05-11T18:02:13.394Z,48.07
2023-05-11T18:03:13.476Z,48.16
2023-05-11T18:04:13.473Z,48.23
2023-05-11T18:05:13.531Z,48.27
2023-05-11T18:06:13.584Z,48.23
2023-05-11T18:07:13.640Z,48.32
2023-05-11T18:08:13.702Z,48.41
2023-05-11T18:09:13.768Z,48.38
2023-05-11T18:10:13.838Z,48.53
2023-05-11T18:11:13.906Z,48.58
2023-05-11T18:12:14.004Z,48.55
2023-05-11T18:13:16.542Z,48.65
2023-05-11T18:14:14.038Z,48.69
2023-05-11T18:15:13.993Z,48.75
2023-05-11T18:16:14.039Z,48.76
2023-05-11T18:17:13.997Z,48.77
2023-05-11T18:18:13.974Z,48.75
2023-05-11T18:19:14.053Z,48.71
2023-05-11T18:20:13.971Z,48.54
2023-05-11T18:21:13.954Z,48.60
2023-05-11T18:22:13.945Z,48.55
2023-05-11T18:23:14.198Z,48.50
2023-05-11T18:24:13.941Z,48.43
2023-05-11T18:25:13.922Z,48.52
2023-05-11T18:26:13.920Z,48.51
2023-05-11T18:27:13.912Z,48.31
2023-05-11T18:28:13.902Z,48.19
2023-05-11T18:29:13.900Z,48.06
2023-05-11T18:30:13.912Z,47.66